Relevés horaires Matro (Suisse)


Relevés horaires à Matro - Lundi 28 Juill. 2014
Heure UTC1 Température [°C] Vent [km/h] Hum. [%] Pres.4 [hPa] Visi. [Km] Nébu. [octa] Préc.5 [mm] Cond.
2m. Res. Ros. Dir.2 Vit. Moy. Raf.3
23:00 8.0 6.4 4.4 NE 9.3 20.4 25.9 78 850(-2.2/3h) -- -- -- --
22:00 7.8 5 6.0 NE 16.7 14.8 29.6 88 850(-0.9/3h) -- -- -- --
21:00 7.6 6.8 6.0 ENE 5.6 22.2 24.1 90 850(-0.4/3h) -- -- -- --
20:00 7.8 6.6 6.1 ENE 7.4 11.1 16.7 89 850(0.0/3h) -- -- -- --
19:00 8.7 6.9 5.8 SO 11.1 22.2 24.1 82 850(-0.4/3h) -- -- -- --
18:00 8.2 5.3 4.8 S 18.5 27.8 37.0 79 850(-0.9/3h) -- -- -- --
17:00 9.7 6.8 7.2 SE 22.2 22.2 27.8 84 850(-0.9/3h) -- -- -- --
16:00 10.4 9.2 8.4 SSE 9.3 14.8 18.5 87 850(-1.2/3h) -- -- -- --
15:00 9.6 7.7 9.2 SSE 13.0 20.4 31.5 97 850(-0.8/3h) -- -- -- --
14:00 9.6 9.6 8.9 S 3.7 9.3 16.7 95 850(-0.9/3h) -- -- -- --
13:00 9.7 7.1 8.0 S 18.5 20.4 31.5 89 850(-0.7/3h) -- -- -- --
12:00 10.2 8.2 8.1 SSE 14.8 22.2 31.5 87 850(-0.7/3h) -- -- -- --
11:00 10.6 8.3 7.4 SSE 18.5 18.5 31.5 81 850(-0.4/3h) -- -- -- --
10:00 10.2 7.6 6.1 SSE 20.4 22.2 27.8 76 850(-0.3/3h) -- -- -- --
09:00 10.3 8.1 5.3 SSE 16.7 16.7 22.2 71 850(-0.2/3h) -- -- -- --
08:00 11.3 10.7 6.1 SSE 7.4 13.0 16.7 70 850(-0.1/3h) -- -- -- --
07:00 10.6 8.9 4.1 SSE 13.0 14.8 16.7 64 850(-0.1/3h) -- -- -- --
06:00 10.5 9.3 3.8 SE 9.3 20.4 25.9 63 850(0.0/3h) -- -- -- --
05:00 10.1 9.7 3.9 N 5.6 7.4 9.3 65 850(-0.5/3h) -- -- -- --
04:00 10.2 10.2 3.7 NO 3.7 3.7 5.6 64 850(-0.7/3h) -- -- -- --
03:00 10.0 10.0 4.2 OSO 3.7 20.4 25.9 67 850(-1.0/3h) -- -- -- --
02:00 9.8 7.7 4.2 NNO 14.8 16.7 20.4 68 850(-1.0/3h) -- -- -- --
01:00 9.9 7.6 4.3 NNO 16.7 20.4 25.9 68 850(-0.9/3h) -- -- -- --
00:00 10.2 7.3 4.4 NNO 24.1 37.0 51.9 67 850(-0.6/3h) -- -- -- --

1 Coordinated Universal Time. Actuellement il est 09:00 locale et 07:00 UTC.

2 Le vent souffle depuis la direction indiquée vers la direction oposée.

3 Les rafales max. sont disponible 40 min après l'heure du relevé.

4 Pour les stations d'altitude (plus de 600m) le géopotentiel du niveau le plus proche de la pression obligatoire est indiqué.

5 Les stations disposant d'un diffuseur peuvent indiquer "trace". Cela signifie que des précipitations ont touchés le sol mais que la quantité est inférieure à 0.1 mm.

Copyright

Les données affichées sur cette page sont la propriété exclusive de Météo Suisse.

Récapitulatif de la journée
Température [°C] Vent [km/h] Ensoleillement4 [h] Precipitations totale5 [mm] Pression [Hpa]
Min1 Max.2 Moy.3 Max. Min Max.
9.8 11.3 18.3 51.9 1 h 6 min 0 850.0 850.0

1 Température minimale relevée entre 18:00 UTC la veille et 18:00 UTC le jour donné.

2 Température maximale relevée entre 06:00 UTC le jour donné et 06:00 UTC le lendemain.

3 Vent moyen de la journée basé sur les relevés horaires.

4 Ensoleillement en heures relevé entre 06:00 UTC la veille et 06:00 UTC le jour donné.

5 Précipitations totales tombées entre 06:00 UTC la jour donné et 06:00 UTC le lendemain.

Graphiques horaires